sensor_id;sensor_type;location;lat;lon;timestamp;temperature;humidity
10986;DHT22;5546;48.714;8.738;2022-08-01T00:02:10;21.80;68.00
10986;DHT22;5546;48.714;8.738;2022-08-01T00:04:35;21.90;67.60
10986;DHT22;5546;48.714;8.738;2022-08-01T00:09:27;21.90;67.50
10986;DHT22;5546;48.714;8.738;2022-08-01T00:11:52;22.00;67.20
10986;DHT22;5546;48.714;8.738;2022-08-01T00:16:44;21.90;67.60
10986;DHT22;5546;48.714;8.738;2022-08-01T00:19:11;21.70;68.40
10986;DHT22;5546;48.714;8.738;2022-08-01T00:24:02;21.70;68.40
10986;DHT22;5546;48.714;8.738;2022-08-01T00:26:28;21.60;68.90
10986;DHT22;5546;48.714;8.738;2022-08-01T00:28:53;21.60;68.50
10986;DHT22;5546;48.714;8.738;2022-08-01T00:31:19;21.70;68.70
10986;DHT22;5546;48.714;8.738;2022-08-01T00:33:44;21.60;68.80
10986;DHT22;5546;48.714;8.738;2022-08-01T00:36:10;21.60;68.80
10986;DHT22;5546;48.714;8.738;2022-08-01T00:38:35;21.60;68.90
10986;DHT22;5546;48.714;8.738;2022-08-01T00:41:01;21.70;69.00
10986;DHT22;5546;48.714;8.738;2022-08-01T00:43:26;21.70;69.10
10986;DHT22;5546;48.714;8.738;2022-08-01T00:45:52;21.50;69.80
10986;DHT22;5546;48.714;8.738;2022-08-01T00:48:18;21.30;70.30
10986;DHT22;5546;48.714;8.738;2022-08-01T00:50:43;21.20;71.00
10986;DHT22;5546;48.714;8.738;2022-08-01T00:53:09;21.20;71.30
10986;DHT22;5546;48.714;8.738;2022-08-01T00:55:35;21.30;71.00
10986;DHT22;5546;48.714;8.738;2022-08-01T00:58:01;21.10;72.20
10986;DHT22;5546;48.714;8.738;2022-08-01T01:00:27;20.90;73.20
10986;DHT22;5546;48.714;8.738;2022-08-01T01:02:52;21.00;72.60
10986;DHT22;5546;48.714;8.738;2022-08-01T01:05:18;21.00;71.90
10986;DHT22;5546;48.714;8.738;2022-08-01T01:07:54;21.10;72.80
10986;DHT22;5546;48.714;8.738;2022-08-01T01:10:28;20.90;73.20
10986;DHT22;5546;48.714;8.738;2022-08-01T01:13:04;20.90;72.70
10986;DHT22;5546;48.714;8.738;2022-08-01T01:15:43;20.80;72.80
10986;DHT22;5546;48.714;8.738;2022-08-01T01:18:22;20.90;72.50
10986;DHT22;5546;48.714;8.738;2022-08-01T01:20:57;20.60;73.80
10986;DHT22;5546;48.714;8.738;2022-08-01T01:26:23;20.70;74.00
10986;DHT22;5546;48.714;8.738;2022-08-01T01:31:47;20.90;73.30
10986;DHT22;5546;48.714;8.738;2022-08-01T01:34:15;20.70;73.60
10986;DHT22;5546;48.714;8.738;2022-08-01T01:36:43;20.70;73.90
10986;DHT22;5546;48.714;8.738;2022-08-01T01:39:09;20.70;74.00
10986;DHT22;5546;48.714;8.738;2022-08-01T01:41:36;20.40;74.80
10986;DHT22;5546;48.714;8.738;2022-08-01T01:44:04;20.50;75.00
10986;DHT22;5546;48.714;8.738;2022-08-01T01:46:31;20.50;74.80
10986;DHT22;5546;48.714;8.738;2022-08-01T01:48:58;20.60;74.70
10986;DHT22;5546;48.714;8.738;2022-08-01T01:51:25;20.50;74.90
10986;DHT22;5546;48.714;8.738;2022-08-01T01:53:53;20.50;75.40
10986;DHT22;5546;48.714;8.738;2022-08-01T01:56:20;20.40;75.50
10986;DHT22;5546;48.714;8.738;2022-08-01T01:58:51;20.40;75.60
10986;DHT22;5546;48.714;8.738;2022-08-01T02:01:18;20.20;76.20
10986;DHT22;5546;48.714;8.738;2022-08-01T02:03:45;20.20;76.50
10986;DHT22;5546;48.714;8.738;2022-08-01T02:06:13;20.50;75.30
10986;DHT22;5546;48.714;8.738;2022-08-01T02:08:40;20.30;76.00
10986;DHT22;5546;48.714;8.738;2022-08-01T02:13:52;20.30;76.40
10986;DHT22;5546;48.714;8.738;2022-08-01T02:16:19;20.20;77.00
10986;DHT22;5546;48.714;8.738;2022-08-01T02:18:46;20.10;77.00
10986;DHT22;5546;48.714;8.738;2022-08-01T02:21:14;20.10;77.50
10986;DHT22;5546;48.714;8.738;2022-08-01T02:23:42;20.10;77.90
10986;DHT22;5546;48.714;8.738;2022-08-01T02:26:11;20.30;76.90
10986;DHT22;5546;48.714;8.738;2022-08-01T02:28:50;20.30;77.10
10986;DHT22;5546;48.714;8.738;2022-08-01T02:31:21;20.10;77.40
10986;DHT22;5546;48.714;8.738;2022-08-01T02:33:53;20.10;77.60
10986;DHT22;5546;48.714;8.738;2022-08-01T02:36:20;20.20;77.80
10986;DHT22;5546;48.714;8.738;2022-08-01T02:38:49;20.10;78.00
10986;DHT22;5546;48.714;8.738;2022-08-01T02:41:19;20.10;78.20
10986;DHT22;5546;48.714;8.738;2022-08-01T02:43:47;20.20;77.80
10986;DHT22;5546;48.714;8.738;2022-08-01T02:46:22;20.20;77.50
10986;DHT22;5546;48.714;8.738;2022-08-01T02:48:52;20.20;77.20
10986;DHT22;5546;48.714;8.738;2022-08-01T02:51:19;20.00;78.30
10986;DHT22;5546;48.714;8.738;2022-08-01T02:53:48;20.00;78.90
10986;DHT22;5546;48.714;8.738;2022-08-01T02:56:15;20.00;78.90
10986;DHT22;5546;48.714;8.738;2022-08-01T02:58:42;20.10;78.80
10986;DHT22;5546;48.714;8.738;2022-08-01T03:01:09;20.00;78.90
10986;DHT22;5546;48.714;8.738;2022-08-01T03:03:36;20.00;79.20
10986;DHT22;5546;48.714;8.738;2022-08-01T03:06:02;20.00;79.80
10986;DHT22;5546;48.714;8.738;2022-08-01T03:08:29;20.00;79.40
10986;DHT22;5546;48.714;8.738;2022-08-01T03:10:57;20.00;78.90
10986;DHT22;5546;48.714;8.738;2022-08-01T03:13:25;20.00;79.00
10986;DHT22;5546;48.714;8.738;2022-08-01T03:15:51;20.00;79.30
10986;DHT22;5546;48.714;8.738;2022-08-01T03:18:18;19.80;79.50
10986;DHT22;5546;48.714;8.738;2022-08-01T03:20:45;19.60;80.30
10986;DHT22;5546;48.714;8.738;2022-08-01T03:23:12;19.60;80.30
10986;DHT22;5546;48.714;8.738;2022-08-01T03:25:40;19.80;80.10
10986;DHT22;5546;48.714;8.738;2022-08-01T03:28:08;19.80;80.70
10986;DHT22;5546;48.714;8.738;2022-08-01T03:30:35;19.70;80.80
10986;DHT22;5546;48.714;8.738;2022-08-01T03:33:02;19.40;81.80
10986;DHT22;5546;48.714;8.738;2022-08-01T03:35:32;19.20;83.40
10986;DHT22;5546;48.714;8.738;2022-08-01T03:38:00;19.30;82.10
10986;DHT22;5546;48.714;8.738;2022-08-01T03:43:07;19.50;82.10
10986;DHT22;5546;48.714;8.738;2022-08-01T03:45:40;19.50;83.40
10986;DHT22;5546;48.714;8.738;2022-08-01T03:48:12;19.70;82.40
10986;DHT22;5546;48.714;8.738;2022-08-01T03:50:41;19.60;82.10
10986;DHT22;5546;48.714;8.738;2022-08-01T03:53:08;19.70;82.60
10986;DHT22;5546;48.714;8.738;2022-08-01T03:55:37;19.80;81.70
10986;DHT22;5546;48.714;8.738;2022-08-01T03:58:03;19.50;82.50
10986;DHT22;5546;48.714;8.738;2022-08-01T04:00:30;19.60;82.70
10986;DHT22;5546;48.714;8.738;2022-08-01T04:02:56;19.50;83.20
10986;DHT22;5546;48.714;8.738;2022-08-01T04:05:21;19.60;82.60
10986;DHT22;5546;48.714;8.738;2022-08-01T04:07:49;19.50;82.60
10986;DHT22;5546;48.714;8.738;2022-08-01T04:10:22;19.30;82.70
10986;DHT22;5546;48.714;8.738;2022-08-01T04:12:48;19.30;83.30
10986;DHT22;5546;48.714;8.738;2022-08-01T04:15:14;19.40;82.80
10986;DHT22;5546;48.714;8.738;2022-08-01T04:17:40;19.40;83.40
10986;DHT22;5546;48.714;8.738;2022-08-01T04:20:06;19.40;83.10
10986;DHT22;5546;48.714;8.738;2022-08-01T04:22:32;19.40;83.80
10986;DHT22;5546;48.714;8.738;2022-08-01T04:24:59;19.50;83.30
10986;DHT22;5546;48.714;8.738;2022-08-01T04:27:38;19.50;84.00
10986;DHT22;5546;48.714;8.738;2022-08-01T04:30:06;19.30;85.10
10986;DHT22;5546;48.714;8.738;2022-08-01T04:32:33;19.30;84.20
10986;DHT22;5546;48.714;8.738;2022-08-01T04:35:03;19.30;83.60
10986;DHT22;5546;48.714;8.738;2022-08-01T04:37:30;19.30;83.60
10986;DHT22;5546;48.714;8.738;2022-08-01T04:39:57;19.30;83.70
10986;DHT22;5546;48.714;8.738;2022-08-01T04:42:23;19.60;83.20
10986;DHT22;5546;48.714;8.738;2022-08-01T04:44:49;19.40;82.50
10986;DHT22;5546;48.714;8.738;2022-08-01T04:47:15;19.50;83.20
10986;DHT22;5546;48.714;8.738;2022-08-01T04:49:41;19.20;83.20
10986;DHT22;5546;48.714;8.738;2022-08-01T04:52:06;19.40;84.00
10986;DHT22;5546;48.714;8.738;2022-08-01T04:54:35;18.80;85.00
10986;DHT22;5546;48.714;8.738;2022-08-01T04:57:05;18.60;86.20
10986;DHT22;5546;48.714;8.738;2022-08-01T04:59:31;18.60;86.90
10986;DHT22;5546;48.714;8.738;2022-08-01T05:02:10;18.90;86.80
10986;DHT22;5546;48.714;8.738;2022-08-01T05:04:37;19.20;85.40
10986;DHT22;5546;48.714;8.738;2022-08-01T05:07:04;19.80;82.10
10986;DHT22;5546;48.714;8.738;2022-08-01T05:09:30;19.70;82.70
10986;DHT22;5546;48.714;8.738;2022-08-01T05:11:56;19.50;83.30
10986;DHT22;5546;48.714;8.738;2022-08-01T05:14:24;19.70;82.00
10986;DHT22;5546;48.714;8.738;2022-08-01T05:16:51;19.70;82.70
10986;DHT22;5546;48.714;8.738;2022-08-01T05:19:17;19.80;82.60
10986;DHT22;5546;48.714;8.738;2022-08-01T05:26:34;21.50;77.30
10986;DHT22;5546;48.714;8.738;2022-08-01T05:29:00;22.20;74.40
10986;DHT22;5546;48.714;8.738;2022-08-01T05:31:25;22.70;72.60
10986;DHT22;5546;48.714;8.738;2022-08-01T05:33:51;22.90;71.10
10986;DHT22;5546;48.714;8.738;2022-08-01T05:38:42;22.90;70.60
10986;DHT22;5546;48.714;8.738;2022-08-01T05:41:09;22.50;71.60
10986;DHT22;5546;48.714;8.738;2022-08-01T05:43:35;22.70;72.10
10986;DHT22;5546;48.714;8.738;2022-08-01T05:46:00;23.10;69.80
10986;DHT22;5546;48.714;8.738;2022-08-01T05:50:53;22.50;71.80
10986;DHT22;5546;48.714;8.738;2022-08-01T05:53:19;22.50;72.20
10986;DHT22;5546;48.714;8.738;2022-08-01T05:55:44;22.30;72.80
10986;DHT22;5546;48.714;8.738;2022-08-01T06:00:36;22.30;73.20
10986;DHT22;5546;48.714;8.738;2022-08-01T06:03:01;22.30;73.30
10986;DHT22;5546;48.714;8.738;2022-08-01T06:05:27;22.50;72.60
10986;DHT22;5546;48.714;8.738;2022-08-01T06:10:19;23.20;71.50
10986;DHT22;5546;48.714;8.738;2022-08-01T06:12:45;23.40;70.80
10986;DHT22;5546;48.714;8.738;2022-08-01T06:15:11;23.00;71.70
10986;DHT22;5546;48.714;8.738;2022-08-01T06:17:36;22.90;72.50
10986;DHT22;5546;48.714;8.738;2022-08-01T06:20:03;22.90;72.60
10986;DHT22;5546;48.714;8.738;2022-08-01T06:22:29;23.10;72.60
10986;DHT22;5546;48.714;8.738;2022-08-01T06:24:54;23.40;71.60
10986;DHT22;5546;48.714;8.738;2022-08-01T06:27:20;23.80;70.10
10986;DHT22;5546;48.714;8.738;2022-08-01T06:29:46;24.30;68.90
10986;DHT22;5546;48.714;8.738;2022-08-01T06:37:04;25.00;67.70
10986;DHT22;5546;48.714;8.738;2022-08-01T06:39:29;25.80;65.10
10986;DHT22;5546;48.714;8.738;2022-08-01T06:41:55;26.60;63.20
10986;DHT22;5546;48.714;8.738;2022-08-01T06:44:20;27.50;60.90
10986;DHT22;5546;48.714;8.738;2022-08-01T06:46:46;28.10;59.30
10986;DHT22;5546;48.714;8.738;2022-08-01T06:49:11;28.70;58.10
10986;DHT22;5546;48.714;8.738;2022-08-01T06:51:37;29.30;57.60
10986;DHT22;5546;48.714;8.738;2022-08-01T06:54:02;29.80;56.40
10986;DHT22;5546;48.714;8.738;2022-08-01T06:56:28;29.60;56.00
10986;DHT22;5546;48.714;8.738;2022-08-01T06:58:54;29.80;56.00
10986;DHT22;5546;48.714;8.738;2022-08-01T07:01:26;29.90;56.50
10986;DHT22;5546;48.714;8.738;2022-08-01T07:03:52;29.20;57.10
10986;DHT22;5546;48.714;8.738;2022-08-01T07:06:18;29.20;57.30
10986;DHT22;5546;48.714;8.738;2022-08-01T07:08:43;29.60;56.60
10986;DHT22;5546;48.714;8.738;2022-08-01T07:11:09;30.30;55.90
10986;DHT22;5546;48.714;8.738;2022-08-01T07:13:34;31.70;53.70
10986;DHT22;5546;48.714;8.738;2022-08-01T07:16:00;31.80;54.00
10986;DHT22;5546;48.714;8.738;2022-08-01T07:18:25;32.30;52.00
10986;DHT22;5546;48.714;8.738;2022-08-01T07:20:51;32.20;52.50
10986;DHT22;5546;48.714;8.738;2022-08-01T07:23:16;33.10;51.40
10986;DHT22;5546;48.714;8.738;2022-08-01T07:25:42;33.60;50.40
10986;DHT22;5546;48.714;8.738;2022-08-01T07:28:08;34.20;49.50
10986;DHT22;5546;48.714;8.738;2022-08-01T07:30:34;35.30;47.60
10986;DHT22;5546;48.714;8.738;2022-08-01T07:33:00;36.10;45.90
10986;DHT22;5546;48.714;8.738;2022-08-01T07:35:25;36.10;45.50
10986;DHT22;5546;48.714;8.738;2022-08-01T07:37:51;35.20;46.10
10986;DHT22;5546;48.714;8.738;2022-08-01T07:40:19;35.20;46.20
10986;DHT22;5546;48.714;8.738;2022-08-01T07:42:45;34.30;47.40
10986;DHT22;5546;48.714;8.738;2022-08-01T07:45:12;34.30;47.60
10986;DHT22;5546;48.714;8.738;2022-08-01T07:47:38;35.20;46.70
10986;DHT22;5546;48.714;8.738;2022-08-01T07:50:05;35.60;45.50
10986;DHT22;5546;48.714;8.738;2022-08-01T07:52:31;35.00;46.00
10986;DHT22;5546;48.714;8.738;2022-08-01T07:54:57;33.90;48.60
10986;DHT22;5546;48.714;8.738;2022-08-01T07:57:23;33.60;48.30
10986;DHT22;5546;48.714;8.738;2022-08-01T07:59:49;32.40;50.30
10986;DHT22;5546;48.714;8.738;2022-08-01T08:02:15;32.50;50.80
10986;DHT22;5546;48.714;8.738;2022-08-01T08:04:41;33.30;49.80
10986;DHT22;5546;48.714;8.738;2022-08-01T08:07:06;33.90;48.40
10986;DHT22;5546;48.714;8.738;2022-08-01T08:09:32;34.10;48.30
10986;DHT22;5546;48.714;8.738;2022-08-01T08:11:57;35.30;46.80
10986;DHT22;5546;48.714;8.738;2022-08-01T08:16:49;35.40;46.20
10986;DHT22;5546;48.714;8.738;2022-08-01T08:19:15;36.70;45.30
10986;DHT22;5546;48.714;8.738;2022-08-01T08:21:41;37.20;43.90
10986;DHT22;5546;48.714;8.738;2022-08-01T08:24:07;36.20;44.50
10986;DHT22;5546;48.714;8.738;2022-08-01T08:26:52;33.60;48.10
10986;DHT22;5546;48.714;8.738;2022-08-01T08:31:45;32.60;50.50
10986;DHT22;5546;48.714;8.738;2022-08-01T08:36:37;33.50;48.90
10986;DHT22;5546;48.714;8.738;2022-08-01T08:39:03;34.40;46.90
10986;DHT22;5546;48.714;8.738;2022-08-01T08:41:30;34.20;46.80
10986;DHT22;5546;48.714;8.738;2022-08-01T08:43:56;35.00;45.90
10986;DHT22;5546;48.714;8.738;2022-08-01T08:46:23;34.90;46.00
10986;DHT22;5546;48.714;8.738;2022-08-01T08:48:51;35.60;45.00
10986;DHT22;5546;48.714;8.738;2022-08-01T08:51:17;35.10;45.60
10986;DHT22;5546;48.714;8.738;2022-08-01T08:53:44;35.10;45.20
10986;DHT22;5546;48.714;8.738;2022-08-01T08:56:12;35.50;44.40
10986;DHT22;5546;48.714;8.738;2022-08-01T08:58:38;36.60;43.70
10986;DHT22;5546;48.714;8.738;2022-08-01T09:01:06;37.60;42.60
10986;DHT22;5546;48.714;8.738;2022-08-01T09:03:34;39.00;40.20
10986;DHT22;5546;48.714;8.738;2022-08-01T09:06:00;39.00;40.60
10986;DHT22;5546;48.714;8.738;2022-08-01T09:08:26;38.40;40.60
10986;DHT22;5546;48.714;8.738;2022-08-01T09:10:51;37.30;41.90
10986;DHT22;5546;48.714;8.738;2022-08-01T09:13:17;36.50;42.60
10986;DHT22;5546;48.714;8.738;2022-08-01T09:15:48;35.60;43.20
10986;DHT22;5546;48.714;8.738;2022-08-01T09:18:35;36.50;43.00
10986;DHT22;5546;48.714;8.738;2022-08-01T09:23:39;34.90;44.20
10986;DHT22;5546;48.714;8.738;2022-08-01T09:26:18;34.60;45.20
10986;DHT22;5546;48.714;8.738;2022-08-01T09:28:47;35.30;44.20
10986;DHT22;5546;48.714;8.738;2022-08-01T09:31:17;35.30;44.10
10986;DHT22;5546;48.714;8.738;2022-08-01T09:33:55;35.10;44.70
10986;DHT22;5546;48.714;8.738;2022-08-01T09:36:25;35.60;43.90
10986;DHT22;5546;48.714;8.738;2022-08-01T09:38:53;35.00;43.80
10986;DHT22;5546;48.714;8.738;2022-08-01T09:41:31;33.50;46.30
10986;DHT22;5546;48.714;8.738;2022-08-01T09:43:57;33.70;45.50
10986;DHT22;5546;48.714;8.738;2022-08-01T09:46:23;33.60;46.10
10986;DHT22;5546;48.714;8.738;2022-08-01T09:49:03;33.50;46.80
10986;DHT22;5546;48.714;8.738;2022-08-01T09:53:56;33.60;45.60
10986;DHT22;5546;48.714;8.738;2022-08-01T09:56:22;34.20;45.20
10986;DHT22;5546;48.714;8.738;2022-08-01T09:58:59;34.80;45.10
10986;DHT22;5546;48.714;8.738;2022-08-01T10:01:25;36.00;43.40
10986;DHT22;5546;48.714;8.738;2022-08-01T10:04:11;36.80;41.80
10986;DHT22;5546;48.714;8.738;2022-08-01T10:06:42;36.30;42.60
10986;DHT22;5546;48.714;8.738;2022-08-01T10:09:10;34.60;44.30
10986;DHT22;5546;48.714;8.738;2022-08-01T10:11:37;34.30;45.50
10986;DHT22;5546;48.714;8.738;2022-08-01T10:14:07;35.00;44.90
10986;DHT22;5546;48.714;8.738;2022-08-01T10:16:34;35.40;44.10
10986;DHT22;5546;48.714;8.738;2022-08-01T10:19:02;36.60;42.50
10986;DHT22;5546;48.714;8.738;2022-08-01T10:21:32;37.20;41.20
10986;DHT22;5546;48.714;8.738;2022-08-01T10:23:58;36.00;42.10
10986;DHT22;5546;48.714;8.738;2022-08-01T10:26:26;35.10;43.80
10986;DHT22;5546;48.714;8.738;2022-08-01T10:28:54;34.50;44.50
10986;DHT22;5546;48.714;8.738;2022-08-01T10:33:46;34.80;43.20
10986;DHT22;5546;48.714;8.738;2022-08-01T10:36:12;34.50;43.80
10986;DHT22;5546;48.714;8.738;2022-08-01T10:38:39;33.40;44.80
10986;DHT22;5546;48.714;8.738;2022-08-01T10:45:58;35.10;43.30
10986;DHT22;5546;48.714;8.738;2022-08-01T10:48:29;36.20;41.30
10986;DHT22;5546;48.714;8.738;2022-08-01T10:50:59;36.80;40.30
10986;DHT22;5546;48.714;8.738;2022-08-01T10:53:27;37.30;40.60
10986;DHT22;5546;48.714;8.738;2022-08-01T10:58:23;38.90;39.10
10986;DHT22;5546;48.714;8.738;2022-08-01T11:03:41;35.60;41.00
10986;DHT22;5546;48.714;8.738;2022-08-01T11:06:18;35.70;42.00
10986;DHT22;5546;48.714;8.738;2022-08-01T11:08:52;34.80;42.00
10986;DHT22;5546;48.714;8.738;2022-08-01T11:11:19;33.60;44.70
10986;DHT22;5546;48.714;8.738;2022-08-01T11:14:04;34.60;43.70
10986;DHT22;5546;48.714;8.738;2022-08-01T11:16:36;36.80;40.90
10986;DHT22;5546;48.714;8.738;2022-08-01T11:19:04;37.90;38.60
10986;DHT22;5546;48.714;8.738;2022-08-01T11:21:57;38.50;37.80
10986;DHT22;5546;48.714;8.738;2022-08-01T11:27:18;37.20;39.00
10986;DHT22;5546;48.714;8.738;2022-08-01T11:32:50;37.60;37.80
10986;DHT22;5546;48.714;8.738;2022-08-01T11:35:16;37.30;38.50
10986;DHT22;5546;48.714;8.738;2022-08-01T11:37:42;37.10;38.30
10986;DHT22;5546;48.714;8.738;2022-08-01T11:40:20;37.30;37.70
10986;DHT22;5546;48.714;8.738;2022-08-01T11:45:55;38.20;36.90
10986;DHT22;5546;48.714;8.738;2022-08-01T11:48:25;38.20;38.50
10986;DHT22;5546;48.714;8.738;2022-08-01T11:50:52;37.10;38.90
10986;DHT22;5546;48.714;8.738;2022-08-01T11:53:19;36.00;40.40
10986;DHT22;5546;48.714;8.738;2022-08-01T11:55:53;34.50;42.80
10986;DHT22;5546;48.714;8.738;2022-08-01T11:58:24;34.00;43.60
10986;DHT22;5546;48.714;8.738;2022-08-01T12:00:51;33.30;45.20
10986;DHT22;5546;48.714;8.738;2022-08-01T12:03:27;33.50;44.80
10986;DHT22;5546;48.714;8.738;2022-08-01T12:05:53;34.30;44.30
10986;DHT22;5546;48.714;8.738;2022-08-01T12:08:30;35.90;42.10
10986;DHT22;5546;48.714;8.738;2022-08-01T12:10:59;36.00;41.20
10986;DHT22;5546;48.714;8.738;2022-08-01T12:13:25;36.30;41.20
10986;DHT22;5546;48.714;8.738;2022-08-01T12:15:51;36.40;41.50
10986;DHT22;5546;48.714;8.738;2022-08-01T12:18:17;37.90;40.00
10986;DHT22;5546;48.714;8.738;2022-08-01T12:20:44;39.60;35.80
10986;DHT22;5546;48.714;8.738;2022-08-01T12:23:12;39.40;36.20
10986;DHT22;5546;48.714;8.738;2022-08-01T12:25:38;37.40;38.40
10986;DHT22;5546;48.714;8.738;2022-08-01T12:28:10;35.20;41.20
10986;DHT22;5546;48.714;8.738;2022-08-01T12:30:37;35.90;41.30
10986;DHT22;5546;48.714;8.738;2022-08-01T12:33:04;37.70;39.10
10986;DHT22;5546;48.714;8.738;2022-08-01T12:35:31;38.60;37.30
10986;DHT22;5546;48.714;8.738;2022-08-01T12:37:59;38.80;37.90
10986;DHT22;5546;48.714;8.738;2022-08-01T12:40:27;37.50;37.60
10986;DHT22;5546;48.714;8.738;2022-08-01T12:42:56;37.90;37.40
10986;DHT22;5546;48.714;8.738;2022-08-01T12:45:25;37.90;37.80
10986;DHT22;5546;48.714;8.738;2022-08-01T12:47:52;38.70;37.60
10986;DHT22;5546;48.714;8.738;2022-08-01T12:50:22;40.20;36.80
10986;DHT22;5546;48.714;8.738;2022-08-01T12:52:50;42.30;34.30
10986;DHT22;5546;48.714;8.738;2022-08-01T12:55:18;42.30;33.80
10986;DHT22;5546;48.714;8.738;2022-08-01T12:57:46;41.40;34.70
10986;DHT22;5546;48.714;8.738;2022-08-01T13:00:22;40.30;35.70
10986;DHT22;5546;48.714;8.738;2022-08-01T13:02:49;40.10;35.60
10986;DHT22;5546;48.714;8.738;2022-08-01T13:05:15;40.20;36.10
10986;DHT22;5546;48.714;8.738;2022-08-01T13:07:47;39.90;34.90
10986;DHT22;5546;48.714;8.738;2022-08-01T13:10:14;37.90;37.30
10986;DHT22;5546;48.714;8.738;2022-08-01T13:12:50;38.00;37.40
10986;DHT22;5546;48.714;8.738;2022-08-01T13:15:25;38.40;37.40
10986;DHT22;5546;48.714;8.738;2022-08-01T13:17:52;38.30;37.00
10986;DHT22;5546;48.714;8.738;2022-08-01T13:20:36;38.10;37.50
10986;DHT22;5546;48.714;8.738;2022-08-01T13:23:16;37.30;39.00
10986;DHT22;5546;48.714;8.738;2022-08-01T13:25:53;37.50;39.20
10986;DHT22;5546;48.714;8.738;2022-08-01T13:28:21;37.10;39.50
10986;DHT22;5546;48.714;8.738;2022-08-01T13:31:02;36.10;40.30
10986;DHT22;5546;48.714;8.738;2022-08-01T13:33:43;35.50;41.40
10986;DHT22;5546;48.714;8.738;2022-08-01T13:36:09;35.00;42.40
10986;DHT22;5546;48.714;8.738;2022-08-01T13:41:19;34.10;43.90
10986;DHT22;5546;48.714;8.738;2022-08-01T13:43:45;34.40;43.30
10986;DHT22;5546;48.714;8.738;2022-08-01T13:46:11;34.40;43.30
10986;DHT22;5546;48.714;8.738;2022-08-01T13:53:28;32.70;44.90
10986;DHT22;5546;48.714;8.738;2022-08-01T13:55:54;32.70;45.40
10986;DHT22;5546;48.714;8.738;2022-08-01T13:58:20;32.60;45.70
10986;DHT22;5546;48.714;8.738;2022-08-01T14:00:45;33.00;45.40
10986;DHT22;5546;48.714;8.738;2022-08-01T14:03:12;33.70;44.90
10986;DHT22;5546;48.714;8.738;2022-08-01T14:08:05;33.60;45.20
10986;DHT22;5546;48.714;8.738;2022-08-01T14:10:30;34.30;44.60
10986;DHT22;5546;48.714;8.738;2022-08-01T14:12:56;33.60;45.20
10986;DHT22;5546;48.714;8.738;2022-08-01T14:15:23;33.40;46.40
10986;DHT22;5546;48.714;8.738;2022-08-01T14:17:49;34.00;45.10
10986;DHT22;5546;48.714;8.738;2022-08-01T14:20:15;33.90;44.90
10986;DHT22;5546;48.714;8.738;2022-08-01T14:22:40;34.40;44.50
10986;DHT22;5546;48.714;8.738;2022-08-01T14:25:06;34.90;43.60
10986;DHT22;5546;48.714;8.738;2022-08-01T14:27:33;34.80;43.30
10986;DHT22;5546;48.714;8.738;2022-08-01T14:30:02;34.80;42.80
10986;DHT22;5546;48.714;8.738;2022-08-01T14:32:28;34.30;44.00
10986;DHT22;5546;48.714;8.738;2022-08-01T14:37:20;33.40;45.20
10986;DHT22;5546;48.714;8.738;2022-08-01T14:42:11;33.40;45.50
10986;DHT22;5546;48.714;8.738;2022-08-01T14:47:03;33.20;46.50
10986;DHT22;5546;48.714;8.738;2022-08-01T14:49:28;33.80;45.80
10986;DHT22;5546;48.714;8.738;2022-08-01T14:51:54;34.10;45.30
10986;DHT22;5546;48.714;8.738;2022-08-01T14:54:19;33.70;45.70
10986;DHT22;5546;48.714;8.738;2022-08-01T14:56:45;33.70;45.20
10986;DHT22;5546;48.714;8.738;2022-08-01T14:59:10;33.20;45.40
10986;DHT22;5546;48.714;8.738;2022-08-01T15:01:36;33.40;45.90
10986;DHT22;5546;48.714;8.738;2022-08-01T15:04:02;33.30;46.20
10986;DHT22;5546;48.714;8.738;2022-08-01T15:08:53;33.40;46.40
10986;DHT22;5546;48.714;8.738;2022-08-01T15:11:19;33.50;46.30
10986;DHT22;5546;48.714;8.738;2022-08-01T15:16:10;32.70;46.50
10986;DHT22;5546;48.714;8.738;2022-08-01T15:18:36;32.30;47.70
10986;DHT22;5546;48.714;8.738;2022-08-01T15:21:01;32.60;47.50
10986;DHT22;5546;48.714;8.738;2022-08-01T15:25:53;31.30;49.10
10986;DHT22;5546;48.714;8.738;2022-08-01T15:28:18;31.00;49.80
10986;DHT22;5546;48.714;8.738;2022-08-01T15:30:45;31.50;49.20
10986;DHT22;5546;48.714;8.738;2022-08-01T15:33:10;31.60;48.90
10986;DHT22;5546;48.714;8.738;2022-08-01T15:35:36;31.60;49.00
10986;DHT22;5546;48.714;8.738;2022-08-01T15:38:02;31.70;49.10
10986;DHT22;5546;48.714;8.738;2022-08-01T15:40:27;32.00;49.00
10986;DHT22;5546;48.714;8.738;2022-08-01T15:42:53;32.00;48.80
10986;DHT22;5546;48.714;8.738;2022-08-01T15:45:19;32.00;48.30
10986;DHT22;5546;48.714;8.738;2022-08-01T15:47:46;31.70;49.00
10986;DHT22;5546;48.714;8.738;2022-08-01T15:52:37;31.90;48.90
10986;DHT22;5546;48.714;8.738;2022-08-01T15:55:03;32.00;48.60
10986;DHT22;5546;48.714;8.738;2022-08-01T15:57:29;31.90;48.70
10986;DHT22;5546;48.714;8.738;2022-08-01T15:59:55;32.00;48.80
10986;DHT22;5546;48.714;8.738;2022-08-01T16:02:20;32.00;49.00
10986;DHT22;5546;48.714;8.738;2022-08-01T16:04:46;32.10;48.60
10986;DHT22;5546;48.714;8.738;2022-08-01T16:07:11;31.90;49.10
10986;DHT22;5546;48.714;8.738;2022-08-01T16:09:44;32.30;48.30
10986;DHT22;5546;48.714;8.738;2022-08-01T16:14:36;31.70;48.80
10986;DHT22;5546;48.714;8.738;2022-08-01T16:17:02;31.60;49.20
10986;DHT22;5546;48.714;8.738;2022-08-01T16:19:27;31.10;49.40
10986;DHT22;5546;48.714;8.738;2022-08-01T16:21:53;30.80;50.50
10986;DHT22;5546;48.714;8.738;2022-08-01T16:26:44;30.70;50.40
10986;DHT22;5546;48.714;8.738;2022-08-01T16:29:10;30.60;50.70
10986;DHT22;5546;48.714;8.738;2022-08-01T16:34:01;30.60;50.80
10986;DHT22;5546;48.714;8.738;2022-08-01T16:38:53;31.10;50.10
10986;DHT22;5546;48.714;8.738;2022-08-01T16:41:18;31.20;49.90
10986;DHT22;5546;48.714;8.738;2022-08-01T16:43:44;31.20;50.10
10986;DHT22;5546;48.714;8.738;2022-08-01T16:48:36;30.90;50.70
10986;DHT22;5546;48.714;8.738;2022-08-01T16:51:01;31.00;50.40
10986;DHT22;5546;48.714;8.738;2022-08-01T16:53:27;30.80;51.10
10986;DHT22;5546;48.714;8.738;2022-08-01T16:58:20;30.80;51.10
10986;DHT22;5546;48.714;8.738;2022-08-01T17:00:46;30.90;50.90
10986;DHT22;5546;48.714;8.738;2022-08-01T17:03:12;31.10;50.70
10986;DHT22;5546;48.714;8.738;2022-08-01T17:05:39;31.30;50.50
10986;DHT22;5546;48.714;8.738;2022-08-01T17:08:06;30.90;51.10
10986;DHT22;5546;48.714;8.738;2022-08-01T17:10:36;31.00;50.40
10986;DHT22;5546;48.714;8.738;2022-08-01T17:13:02;30.80;51.00
10986;DHT22;5546;48.714;8.738;2022-08-01T17:15:28;30.40;51.50
10986;DHT22;5546;48.714;8.738;2022-08-01T17:17:54;30.30;52.20
10986;DHT22;5546;48.714;8.738;2022-08-01T17:20:21;30.50;51.80
10986;DHT22;5546;48.714;8.738;2022-08-01T17:22:46;30.30;52.10
10986;DHT22;5546;48.714;8.738;2022-08-01T17:25:12;30.50;52.50
10986;DHT22;5546;48.714;8.738;2022-08-01T17:30:05;30.60;52.30
10986;DHT22;5546;48.714;8.738;2022-08-01T17:32:30;30.50;52.20
10986;DHT22;5546;48.714;8.738;2022-08-01T17:34:59;30.30;52.70
10986;DHT22;5546;48.714;8.738;2022-08-01T17:37:25;30.30;52.80
10986;DHT22;5546;48.714;8.738;2022-08-01T17:42:16;29.50;54.50
10986;DHT22;5546;48.714;8.738;2022-08-01T17:44:42;29.30;55.00
10986;DHT22;5546;48.714;8.738;2022-08-01T17:49:33;29.30;55.30